Time;durP1;ratioP1;P1;durP2;ratioP2;P2;SDS_P1;SDS_P2;PMS_P1;PMS_P2;Temp;Humidity;BMP_temperature;BMP_pressure;BME280_temperature;BME280_humidity;BME280_pressure;Samples;Min_cycle;Max_cycle;Signal;HPM_P1;HPM_P2
2023/10/13 00:02:29;;;;;;;36.25;20.15;;;;;;;;;;10446044;28;20025;-79
2023/10/13 00:07:30;;;;;;;45.85;25.38;;;;;;;;;;10445451;28;20041;-80
2023/10/13 00:12:31;;;;;;;42.40;23.15;;;;;;;;;;10445709;28;20522;-80
2023/10/13 00:17:32;;;;;;;30.52;17.23;;;;;;;;;;10438600;28;20082;-80
2023/10/13 00:22:34;;;;;;;44.28;23.10;;;;;;;;;;10446170;28;20025;-80
2023/10/13 00:27:41;;;;;;;39.05;21.67;;;;;;;;;;10444907;28;20029;-80
2023/10/13 00:32:43;;;;;;;35.83;20.08;;;;;;;;;;10444794;28;20029;-81
2023/10/13 00:37:44;;;;;;;34.97;18.52;;;;;;;;;;10445126;28;20028;-81
2023/10/13 00:42:52;;;;;;;29.48;17.00;;;;;;;;;;10443072;28;20060;-81
2023/10/13 00:47:57;;;;;;;31.58;17.00;;;;;;;;;;10444619;28;20177;-80
2023/10/13 00:52:58;;;;;;;35.47;18.97;;;;;;;;;;10431243;28;20199;-80
2023/10/13 00:58:03;;;;;;;52.85;27.40;;;;;;;;;;10444184;28;20275;-80
2023/10/13 01:03:07;;;;;;;53.87;27.07;;;;;;;;;;10443593;28;20032;-80
2023/10/13 01:08:12;;;;;;;41.05;21.50;;;;;;;;;;10444750;28;20086;-79
2023/10/13 01:13:22;;;;;;;65.18;29.55;;;;;;;;;;10443998;28;20041;-80
2023/10/13 01:18:23;;;;;;;36.85;20.33;;;;;;;;;;10443757;28;20674;-80
2023/10/13 01:23:25;;;;;;;38.25;22.95;;;;;;;;;;10443499;28;20025;-80
2023/10/13 01:28:26;;;;;;;55.10;27.05;;;;;;;;;;10442869;28;20029;-79
2023/10/13 01:33:28;;;;;;;48.42;26.73;;;;;;;;;;10443760;28;20049;-81
2023/10/13 01:38:33;;;;;;;41.63;21.63;;;;;;;;;;10426326;28;20025;-80
2023/10/13 01:43:34;;;;;;;79.40;35.83;;;;;;;;;;10442374;28;20065;-80
2023/10/13 01:48:40;;;;;;;67.78;32.33;;;;;;;;;;10443541;28;20021;-79
2023/10/13 01:53:56;;;;;;;44.35;25.15;;;;;;;;;;10443097;28;20044;-81
2023/10/13 01:58:57;;;;;;;40.75;24.25;;;;;;;;;;10443232;28;20086;-81
2023/10/13 02:04:03;;;;;;;84.82;34.58;;;;;;;;;;10446636;28;20020;-79
2023/10/13 02:09:27;;;;;;;60.30;30.13;;;;;;;;;;10437762;28;20128;-79
2023/10/13 02:14:27;;;;;;;34.45;19.50;;;;;;;;;;10449550;28;20040;-79
2023/10/13 02:19:28;;;;;;;30.88;16.02;;;;;;;;;;10450935;28;20565;-79
2023/10/13 02:24:30;;;;;;;44.38;24.58;;;;;;;;;;10450312;28;20065;-80
2023/10/13 02:29:38;;;;;;;45.83;25.50;;;;;;;;;;10450010;28;20028;-81
2023/10/13 02:34:43;;;;;;;42.78;24.20;;;;;;;;;;10480188;22;20436;-80
2023/10/13 02:39:44;;;;;;;52.78;23.30;;;;;;;;;;10491117;28;20503;-81
2023/10/13 02:44:46;;;;;;;82.20;29.85;;;;;;;;;;10490895;28;20089;-79
2023/10/13 02:49:47;;;;;;;48.55;24.23;;;;;;;;;;10490128;28;20033;-80
2023/10/13 02:54:50;;;;;;;47.20;25.08;;;;;;;;;;10490388;28;20040;-80
2023/10/13 02:59:57;;;;;;;35.53;19.30;;;;;;;;;;10489687;28;20017;-80
2023/10/13 03:05:09;;;;;;;45.97;26.58;;;;;;;;;;10489850;28;20115;-81
2023/10/13 03:10:10;;;;;;;45.80;24.83;;;;;;;;;;10489581;28;20032;-81
2023/10/13 03:15:13;;;;;;;104.32;34.88;;;;;;;;;;10489216;28;20024;-80
2023/10/13 03:20:16;;;;;;;111.35;38.40;;;;;;;;;;10489081;28;20381;-80
2023/10/13 03:25:23;;;;;;;55.35;29.92;;;;;;;;;;10489086;28;20035;-80
2023/10/13 03:30:35;;;;;;;51.47;28.17;;;;;;;;;;10471299;28;20029;-79
2023/10/13 03:35:42;;;;;;;46.83;28.52;;;;;;;;;;10465416;28;20056;-79
2023/10/13 03:40:49;;;;;;;45.60;27.20;;;;;;;;;;10474756;28;20025;-79
2023/10/13 03:46:08;;;;;;;51.10;25.02;;;;;;;;;;10472779;28;20032;-80
2023/10/13 03:51:14;;;;;;;43.55;23.92;;;;;;;;;;10444002;28;20147;-79
2023/10/13 03:56:23;;;;;;;39.10;17.35;;;;;;;;;;10470740;28;20059;-79
2023/10/13 04:01:31;;;;;;;51.58;26.90;;;;;;;;;;10440964;28;20146;-79
2023/10/13 04:17:11;;;;;;;210.02;36.08;;;;;;;;;;10472823;28;20041;-80
2023/10/13 04:22:20;;;;;;;514.47;71.82;;;;;;;;;;10461284;28;20029;-79
2023/10/13 04:27:39;;;;;;;539.30;86.88;;;;;;;;;;10472090;28;20032;-79
2023/10/13 04:32:46;;;;;;;138.15;38.88;;;;;;;;;;10458718;28;20058;-79
2023/10/13 04:42:57;;;;;;;77.15;32.88;;;;;;;;;;10471481;28;20043;-80
2023/10/13 04:48:38;;;;;;;86.88;35.42;;;;;;;;;;10483983;28;20028;-79
2023/10/13 04:53:37;;;;;;;34.75;20.08;;;;;;;;;;10460823;28;20040;-80
2023/10/13 05:47:12;;;;;;;39.20;23.08;;;;;;;;;;10469090;28;20041;-79
2023/10/13 06:29:34;;;;;;;36.28;19.55;;;;;;;;;;10451056;28;20111;-79
2023/10/13 06:34:42;;;;;;;32.20;18.73;;;;;;;;;;10464554;28;20796;-79
2023/10/13 06:39:46;;;;;;;50.63;27.20;;;;;;;;;;10461388;28;20025;-80
2023/10/13 06:44:47;;;;;;;35.70;19.42;;;;;;;;;;10469749;28;20037;-80
2023/10/13 06:49:51;;;;;;;36.45;21.42;;;;;;;;;;10453295;28;20033;-81
2023/10/13 06:54:53;;;;;;;44.42;24.40;;;;;;;;;;10471577;28;20530;-78
2023/10/13 06:59:55;;;;;;;38.97;21.88;;;;;;;;;;10462165;28;20104;-82
2023/10/13 07:05:11;;;;;;;42.55;27.75;;;;;;;;;;10479842;28;20442;-78
2023/10/13 07:10:13;;;;;;;40.47;26.13;;;;;;;;;;10480487;28;20047;-79
2023/10/13 07:15:26;;;;;;;41.03;26.40;;;;;;;;;;10483280;28;20025;-79
2023/10/13 07:25:32;;;;;;;31.23;18.65;;;;;;;;;;10482925;28;20041;-78
2023/10/13 07:30:41;;;;;;;30.60;18.02;;;;;;;;;;10464704;28;20119;-78
2023/10/13 07:35:42;;;;;;;29.92;17.92;;;;;;;;;;10464188;28;20060;-79
2023/10/13 07:40:50;;;;;;;35.65;21.08;;;;;;;;;;10445222;28;20628;-78
2023/10/13 07:45:58;;;;;;;34.95;21.75;;;;;;;;;;10476470;28;20101;-80
2023/10/13 07:51:03;;;;;;;38.10;24.20;;;;;;;;;;10468926;28;20221;-79
2023/10/13 07:56:17;;;;;;;31.05;17.77;;;;;;;;;;10472273;28;20115;-78
2023/10/13 08:01:22;;;;;;;28.42;17.15;;;;;;;;;;10461650;28;20609;-79
2023/10/13 08:06:28;;;;;;;25.20;15.30;;;;;;;;;;10467316;28;20013;-82
2023/10/13 08:11:34;;;;;;;26.42;14.15;;;;;;;;;;10445698;28;20044;-79
2023/10/13 08:27:33;;;;;;;25.00;15.70;;;;;;;;;;10472738;28;20032;-81
2023/10/13 08:32:54;;;;;;;32.80;19.05;;;;;;;;;;10473129;28;20491;-79
2023/10/13 08:53:26;;;;;;;20.50;10.30;;;;;;;;;;10471923;28;20048;-81
2023/10/13 08:58:59;;;;;;;18.70;10.70;;;;;;;;;;10485378;28;20032;-79
2023/10/13 09:03:49;;;;;;;23.05;13.85;;;;;;;;;;10471306;28;20040;-79
2023/10/13 09:09:07;;;;;;;26.60;16.05;;;;;;;;;;10485458;28;20040;-79
2023/10/13 09:14:32;;;;;;;22.90;12.38;;;;;;;;;;10485561;28;20119;-79
2023/10/13 09:19:44;;;;;;;18.40;12.02;;;;;;;;;;10471584;28;20017;-79
2023/10/13 09:24:51;;;;;;;23.63;11.38;;;;;;;;;;10460119;28;20086;-81
2023/10/13 09:29:55;;;;;;;16.85;11.23;;;;;;;;;;10465385;28;20021;-79
2023/10/13 09:35:00;;;;;;;15.88;9.98;;;;;;;;;;10444490;28;20455;-80
2023/10/13 09:40:06;;;;;;;16.40;8.50;;;;;;;;;;10467862;28;20063;-79
2023/10/13 09:45:12;;;;;;;13.10;8.75;;;;;;;;;;10443702;28;20025;-79
2023/10/13 09:50:23;;;;;;;14.25;7.40;;;;;;;;;;10456267;28;20033;-80
2023/10/13 09:55:29;;;;;;;12.65;7.15;;;;;;;;;;10479168;28;20090;-81
2023/10/13 10:05:49;;;;;;;11.18;5.50;;;;;;;;;;10470134;28;20033;-79
2023/10/13 10:11:00;;;;;;;10.32;5.18;;;;;;;;;;10443786;28;20051;-81
2023/10/13 10:16:08;;;;;;;10.88;6.07;;;;;;;;;;10469322;28;20025;-79
2023/10/13 10:21:13;;;;;;;12.80;6.45;;;;;;;;;;10461744;28;20025;-81
2023/10/13 10:26:15;;;;;;;11.43;5.65;;;;;;;;;;10462339;28;20028;-80
2023/10/13 10:31:17;;;;;;;7.78;5.53;;;;;;;;;;10467546;28;20049;-79
2023/10/13 10:36:29;;;;;;;10.98;6.18;;;;;;;;;;10459434;28;20149;-80
2023/10/13 10:41:45;;;;;;;10.48;5.53;;;;;;;;;;10476816;28;20064;-81
2023/10/13 10:46:56;;;;;;;9.10;5.32;;;;;;;;;;10448746;28;20032;-79
2023/10/13 10:52:01;;;;;;;12.93;5.07;;;;;;;;;;10455789;28;20032;-79
2023/10/13 10:57:11;;;;;;;9.35;5.03;;;;;;;;;;10467912;28;20029;-79
2023/10/13 11:02:18;;;;;;;8.98;5.22;;;;;;;;;;10460058;28;20017;-80
2023/10/13 11:07:23;;;;;;;10.55;5.22;;;;;;;;;;10463257;28;20868;-80
2023/10/13 11:12:25;;;;;;;;;;;;;;;;;;10474836;28;20119;-79
2023/10/13 11:17:38;;;;;;;10.23;5.50;;;;;;;;;;10475544;28;19909;-80
2023/10/13 11:22:46;;;;;;;10.77;5.22;;;;;;;;;;10454166;28;20086;-80
2023/10/13 11:33:05;;;;;;;11.43;4.85;;;;;;;;;;10474773;28;20568;-79
2023/10/13 11:38:13;;;;;;;11.10;4.70;;;;;;;;;;10487052;28;20580;-79
2023/10/13 11:43:15;;;;;;;11.13;5.47;;;;;;;;;;10474676;28;20051;-80
2023/10/13 11:48:16;;;;;;;12.70;4.82;;;;;;;;;;10470038;28;20035;-81
2023/10/13 11:53:18;;;;;;;9.15;5.03;;;;;;;;;;10451798;28;20028;-80
2023/10/13 11:58:19;;;;;;;7.15;5.13;;;;;;;;;;10449158;28;20036;-79
2023/10/13 12:08:49;;;;;;;11.23;5.40;;;;;;;;;;10472499;28;20037;-80
2023/10/13 12:13:50;;;;;;;9.05;4.85;;;;;;;;;;10444936;28;20044;-79
2023/10/13 12:18:53;;;;;;;9.63;5.45;;;;;;;;;;10446344;28;20024;-79
2023/10/13 12:23:54;;;;;;;8.00;4.43;;;;;;;;;;10455034;28;20029;-81
2023/10/13 12:29:06;;;;;;;8.52;4.47;;;;;;;;;;10448256;28;20836;-80
2023/10/13 12:34:14;;;;;;;10.93;4.57;;;;;;;;;;10463896;28;20041;-79
2023/10/13 12:50:12;;;;;;;8.98;4.57;;;;;;;;;;10471386;28;20067;-80
2023/10/13 12:55:14;;;;;;;11.00;4.50;;;;;;;;;;10470475;28;20047;-80
2023/10/13 13:00:25;;;;;;;7.78;4.32;;;;;;;;;;10476031;28;20032;-79
2023/10/13 13:05:29;;;;;;;7.80;3.88;;;;;;;;;;10469422;28;20479;-81
2023/10/13 13:10:36;;;;;;;8.37;3.90;;;;;;;;;;10458146;28;20044;-79
2023/10/13 13:15:37;;;;;;;8.00;4.30;;;;;;;;;;10444441;28;20094;-79
2023/10/13 13:21:12;;;;;;;8.48;5.00;;;;;;;;;;10460119;28;20603;-79
2023/10/13 13:26:15;;;;;;;9.38;4.35;;;;;;;;;;10481722;28;20049;-80
2023/10/13 13:31:17;;;;;;;8.38;4.22;;;;;;;;;;10473365;28;20083;-79
2023/10/13 13:36:25;;;;;;;7.72;4.32;;;;;;;;;;10467773;28;20060;-79
2023/10/13 13:41:26;;;;;;;6.30;4.22;;;;;;;;;;10468646;28;20492;-80
2023/10/13 13:46:32;;;;;;;9.60;4.22;;;;;;;;;;10443241;28;20061;-79
2023/10/13 13:51:34;;;;;;;6.18;3.53;;;;;;;;;;10460106;28;20543;-79
2023/10/13 13:56:41;;;;;;;8.65;3.78;;;;;;;;;;10465104;28;20023;-80
2023/10/13 14:01:44;;;;;;;7.60;4.10;;;;;;;;;;10456402;28;20040;-79
2023/10/13 14:06:45;;;;;;;7.55;3.95;;;;;;;;;;10455943;28;20039;-79
2023/10/13 14:17:08;;;;;;;7.07;3.90;;;;;;;;;;10450387;28;20041;-79
2023/10/13 14:22:12;;;;;;;4.63;3.58;;;;;;;;;;10463672;28;20040;-79
2023/10/13 14:27:18;;;;;;;5.50;4.22;;;;;;;;;;10453206;28;20048;-80
2023/10/13 14:32:24;;;;;;;6.35;3.45;;;;;;;;;;10459199;28;20123;-79
2023/10/13 14:37:30;;;;;;;;;;;;;;;;;;10462682;28;20143;-79
2023/10/13 14:42:35;;;;;;;9.45;3.53;;;;;;;;;;10466804;28;19912;-81
2023/10/13 14:47:39;;;;;;;9.47;3.80;;;;;;;;;;10473067;28;20028;-80
2023/10/13 14:52:40;;;;;;;7.03;4.20;;;;;;;;;;10476679;28;20080;-78
2023/10/13 14:57:41;;;;;;;9.75;4.47;;;;;;;;;;10477425;28;20020;-79
2023/10/13 15:02:43;;;;;;;7.85;3.97;;;;;;;;;;10489921;28;20032;-79
2023/10/13 15:07:45;;;;;;;11.65;5.70;;;;;;;;;;10462945;28;20048;-79
2023/10/13 15:12:46;;;;;;;7.50;4.40;;;;;;;;;;10475959;28;20029;-79
2023/10/13 15:17:47;;;;;;;8.70;4.50;;;;;;;;;;10469515;28;20017;-80
2023/10/13 15:22:49;;;;;;;7.45;3.95;;;;;;;;;;10465517;28;20111;-79
2023/10/13 15:27:55;;;;;;;7.13;3.85;;;;;;;;;;10455982;28;20046;-79
2023/10/13 15:32:57;;;;;;;8.45;4.53;;;;;;;;;;10451479;28;20037;-79
2023/10/13 15:37:58;;;;;;;8.23;4.78;;;;;;;;;;10471262;28;20055;-79
2023/10/13 15:42:59;;;;;;;9.25;5.05;;;;;;;;;;10487951;28;20033;-79
2023/10/13 15:48:04;;;;;;;8.18;4.80;;;;;;;;;;10461356;28;20682;-79
2023/10/13 15:53:06;;;;;;;7.38;4.35;;;;;;;;;;10483737;28;20193;-78
2023/10/13 15:58:07;;;;;;;8.63;4.68;;;;;;;;;;10473204;28;20029;-79
2023/10/13 16:03:11;;;;;;;10.13;4.72;;;;;;;;;;10471109;28;20444;-79
2023/10/13 16:08:18;;;;;;;11.13;4.68;;;;;;;;;;10455613;28;20032;-79
2023/10/13 16:13:20;;;;;;;10.10;5.35;;;;;;;;;;10457300;28;20068;-79
2023/10/13 16:18:21;;;;;;;10.95;5.90;;;;;;;;;;10471642;28;20029;-80
2023/10/13 16:23:23;;;;;;;11.88;6.60;;;;;;;;;;10452401;28;20024;-78
2023/10/13 16:28:24;;;;;;;10.75;6.18;;;;;;;;;;10463430;28;20051;-82
2023/10/13 16:33:28;;;;;;;12.93;6.97;;;;;;;;;;10482071;28;20121;-80
2023/10/13 16:38:29;;;;;;;13.30;6.50;;;;;;;;;;10472281;28;20143;-80
2023/10/13 16:43:33;;;;;;;13.60;7.05;;;;;;;;;;10444585;28;20040;-81
2023/10/13 16:48:34;;;;;;;15.98;7.60;;;;;;;;;;10457261;28;20029;-80
2023/10/13 16:53:36;;;;;;;12.82;6.80;;;;;;;;;;10457489;28;20039;-79
2023/10/13 16:58:37;;;;;;;13.07;7.65;;;;;;;;;;10479214;28;20031;-80
2023/10/13 17:03:39;;;;;;;18.55;8.75;;;;;;;;;;10471913;28;20031;-81
2023/10/13 17:08:40;;;;;;;17.42;9.02;;;;;;;;;;10447954;28;20043;-81
2023/10/13 17:13:42;;;;;;;14.52;9.50;;;;;;;;;;10441034;28;20408;-79
2023/10/13 17:18:44;;;;;;;17.75;8.98;;;;;;;;;;10442501;28;20574;-79
2023/10/13 17:23:46;;;;;;;18.60;8.35;;;;;;;;;;10457033;28;20503;-79
2023/10/13 17:28:47;;;;;;;16.95;9.25;;;;;;;;;;10471302;28;20517;-79
2023/10/13 17:33:58;;;;;;;13.07;8.35;;;;;;;;;;10475719;28;20052;-80
2023/10/13 17:39:00;;;;;;;14.88;8.10;;;;;;;;;;10471470;28;20075;-80
2023/10/13 17:44:02;;;;;;;14.05;7.50;;;;;;;;;;10467162;28;20059;-80
2023/10/13 17:49:03;;;;;;;14.45;7.15;;;;;;;;;;10456993;28;20051;-79
2023/10/13 17:54:05;;;;;;;16.38;8.25;;;;;;;;;;10481106;28;20483;-80
2023/10/13 17:59:06;;;;;;;15.60;8.45;;;;;;;;;;10476356;28;20041;-80
2023/10/13 18:04:09;;;;;;;16.67;8.95;;;;;;;;;;10461130;28;20037;-80
2023/10/13 18:09:14;;;;;;;19.08;8.00;;;;;;;;;;10470285;28;20029;-81
2023/10/13 18:14:16;;;;;;;12.00;7.15;;;;;;;;;;10476259;28;20499;-80
2023/10/13 18:19:20;;;;;;;13.43;7.18;;;;;;;;;;10485360;28;20016;-80
2023/10/13 18:24:22;;;;;;;17.70;7.72;;;;;;;;;;10479133;28;20034;-83
2023/10/13 18:29:23;;;;;;;11.18;6.63;;;;;;;;;;10471696;28;20107;-80
2023/10/13 18:34:24;;;;;;;11.75;7.65;;;;;;;;;;10481197;28;20551;-80
2023/10/13 18:39:33;;;;;;;14.05;7.82;;;;;;;;;;10469500;28;20060;-81
2023/10/13 18:44:35;;;;;;;15.52;7.65;;;;;;;;;;10456548;28;20033;-84
2023/10/13 18:49:38;;;;;;;13.52;7.68;;;;;;;;;;10450086;28;20021;-83
2023/10/13 18:54:40;;;;;;;18.10;7.50;;;;;;;;;;10467510;28;20115;-79
2023/10/13 18:59:43;;;;;;;17.38;7.85;;;;;;;;;;10476416;28;20036;-81
2023/10/13 19:04:45;;;;;;;15.15;8.05;;;;;;;;;;10476771;28;20032;-80
2023/10/13 19:09:46;;;;;;;13.10;7.72;;;;;;;;;;10469853;28;20031;-79
2023/10/13 19:14:47;;;;;;;15.10;8.07;;;;;;;;;;10444966;28;20047;-82
2023/10/13 19:19:48;;;;;;;16.88;8.38;;;;;;;;;;10473999;28;20037;-82
2023/10/13 19:24:56;;;;;;;14.70;8.20;;;;;;;;;;10461906;28;20121;-81
2023/10/13 19:29:57;;;;;;;16.75;7.78;;;;;;;;;;10460853;28;20055;-81
2023/10/13 19:34:58;;;;;;;16.63;8.43;;;;;;;;;;10470425;28;20060;-80
2023/10/13 19:39:59;;;;;;;14.15;7.57;;;;;;;;;;10476772;28;20033;-82
2023/10/13 19:45:00;;;;;;;14.18;7.63;;;;;;;;;;10467082;28;20453;-82
2023/10/13 19:50:01;;;;;;;18.67;8.30;;;;;;;;;;10468416;28;20033;-80
2023/10/13 19:55:15;;;;;;;17.95;8.50;;;;;;;;;;10471060;28;20033;-81
2023/10/13 20:00:20;;;;;;;24.30;10.88;;;;;;;;;;10466493;28;20031;-81
2023/10/13 20:05:21;;;;;;;16.83;8.82;;;;;;;;;;10457472;28;20388;-79
2023/10/13 20:10:22;;;;;;;17.35;8.82;;;;;;;;;;10460015;28;20032;-81
2023/10/13 20:15:23;;;;;;;15.75;8.20;;;;;;;;;;10459428;28;20058;-80
2023/10/13 20:20:28;;;;;;;16.77;8.00;;;;;;;;;;10456750;28;20061;-80
2023/10/13 20:25:30;;;;;;;19.45;9.55;;;;;;;;;;10471864;28;20035;-79
2023/10/13 20:30:33;;;;;;;16.20;8.63;;;;;;;;;;10455834;28;20124;-79
2023/10/13 20:35:34;;;;;;;13.45;7.72;;;;;;;;;;10468073;28;20052;-80
2023/10/13 20:40:36;;;;;;;14.10;7.50;;;;;;;;;;10457877;28;20033;-79
2023/10/13 20:45:37;;;;;;;15.90;7.90;;;;;;;;;;10428711;28;20033;-79
2023/10/13 20:50:38;;;;;;;19.50;9.32;;;;;;;;;;10429904;28;20044;-80
2023/10/13 20:55:39;;;;;;;18.08;8.23;;;;;;;;;;10479774;28;20714;-79
2023/10/13 21:00:43;;;;;;;16.75;8.75;;;;;;;;;;10458703;28;20035;-80
2023/10/13 21:05:47;;;;;;;15.52;9.02;;;;;;;;;;10472015;28;20183;-80
2023/10/13 21:10:49;;;;;;;236.32;111.30;;;;;;;;;;10443211;28;20140;-79
2023/10/13 21:15:50;;;;;;;319.55;159.05;;;;;;;;;;10460383;28;20727;-80
2023/10/13 21:20:51;;;;;;;234.98;102.47;;;;;;;;;;10482223;28;20028;-80
2023/10/13 21:25:52;;;;;;;221.32;86.80;;;;;;;;;;10471163;28;20020;-79
2023/10/13 21:30:53;;;;;;;178.57;60.97;;;;;;;;;;10437735;28;20465;-80
2023/10/13 21:35:57;;;;;;;81.07;30.98;;;;;;;;;;10442756;28;20083;-80
2023/10/13 21:41:05;;;;;;;183.05;68.82;;;;;;;;;;10446623;28;20016;-79
2023/10/13 21:46:07;;;;;;;38.95;17.58;;;;;;;;;;10484842;28;20025;-79
2023/10/13 21:51:09;;;;;;;31.08;15.70;;;;;;;;;;10469358;28;20030;-79
2023/10/13 21:56:14;;;;;;;42.97;21.80;;;;;;;;;;10472424;28;20520;-79
2023/10/13 22:06:25;;;;;;;27.15;15.73;;;;;;;;;;10477084;28;20167;-80
2023/10/13 22:11:26;;;;;;;69.82;26.08;;;;;;;;;;10451273;28;20025;-78
2023/10/13 22:16:27;;;;;;;37.67;17.67;;;;;;;;;;10469942;28;20024;-79
2023/10/13 22:21:29;;;;;;;34.28;17.90;;;;;;;;;;10488895;28;20032;-80
2023/10/13 22:26:30;;;;;;;29.88;16.70;;;;;;;;;;10463694;28;20037;-81
2023/10/13 22:31:31;;;;;;;29.17;14.30;;;;;;;;;;10491595;28;20079;-81
2023/10/13 22:36:32;;;;;;;31.88;15.48;;;;;;;;;;10489534;28;20086;-81
2023/10/13 22:41:33;;;;;;;22.98;13.52;;;;;;;;;;10477278;28;20039;-81
2023/10/13 22:46:34;;;;;;;31.88;15.85;;;;;;;;;;10476996;28;20028;-80
2023/10/13 22:51:35;;;;;;;26.95;14.27;;;;;;;;;;10471359;28;20037;-79
2023/10/13 22:56:40;;;;;;;23.63;15.35;;;;;;;;;;10475882;28;20021;-79
2023/10/13 23:01:45;;;;;;;22.95;14.65;;;;;;;;;;10469898;28;20111;-80
2023/10/13 23:06:46;;;;;;;52.95;23.38;;;;;;;;;;10466880;28;20036;-78
2023/10/13 23:11:48;;;;;;;34.70;16.83;;;;;;;;;;10460922;28;20054;-79
2023/10/13 23:16:50;;;;;;;30.35;15.43;;;;;;;;;;10458879;28;20440;-80
2023/10/13 23:21:51;;;;;;;27.88;13.77;;;;;;;;;;10444723;28;20037;-79
2023/10/13 23:26:52;;;;;;;25.45;14.10;;;;;;;;;;10423909;28;20560;-80
2023/10/13 23:32:01;;;;;;;24.67;14.15;;;;;;;;;;10446920;28;20404;-80
2023/10/13 23:37:04;;;;;;;47.42;23.00;;;;;;;;;;10437127;28;20061;-81
2023/10/13 23:42:07;;;;;;;134.68;51.38;;;;;;;;;;10449736;28;20037;-79
2023/10/13 23:47:10;;;;;;;259.35;87.15;;;;;;;;;;10435045;28;20146;-79
2023/10/13 23:52:11;;;;;;;207.32;70.43;;;;;;;;;;10431304;28;20124;-79
2023/10/13 23:57:13;;;;;;;47.28;21.35;;;;;;;;;;10478980;28;20028;-80
